sensor_id;sensor_type;location;lat;lon;timestamp;P1;durP1;ratioP1;P2;durP2;ratioP2
16660;SDS011;8444;52.012;5.048;2022-12-24T00:01:06;25.00;;;4.53;;
16660;SDS011;8444;52.012;5.048;2022-12-24T00:03:32;24.77;;;5.40;;
16660;SDS011;8444;52.012;5.048;2022-12-24T00:05:57;23.30;;;5.30;;
16660;SDS011;8444;52.012;5.048;2022-12-24T00:08:22;20.43;;;4.47;;
16660;SDS011;8444;52.012;5.048;2022-12-24T00:10:51;18.23;;;5.03;;
16660;SDS011;8444;52.012;5.048;2022-12-24T00:13:16;22.00;;;5.60;;
16660;SDS011;8444;52.012;5.048;2022-12-24T00:15:41;25.70;;;4.43;;
16660;SDS011;8444;52.012;5.048;2022-12-24T00:18:06;25.53;;;6.10;;
16660;SDS011;8444;52.012;5.048;2022-12-24T00:20:32;19.93;;;5.67;;
16660;SDS011;8444;52.012;5.048;2022-12-24T00:22:57;19.90;;;4.37;;
16660;SDS011;8444;52.012;5.048;2022-12-24T00:25:22;21.97;;;4.57;;
16660;SDS011;8444;52.012;5.048;2022-12-24T00:27:47;24.40;;;4.20;;
16660;SDS011;8444;52.012;5.048;2022-12-24T00:30:12;21.67;;;4.27;;
16660;SDS011;8444;52.012;5.048;2022-12-24T00:32:38;21.33;;;5.43;;
16660;SDS011;8444;52.012;5.048;2022-12-24T00:35:03;21.87;;;4.83;;
16660;SDS011;8444;52.012;5.048;2022-12-24T00:37:28;27.20;;;5.10;;
16660;SDS011;8444;52.012;5.048;2022-12-24T00:39:53;29.87;;;4.80;;
16660;SDS011;8444;52.012;5.048;2022-12-24T00:42:19;32.47;;;5.73;;
16660;SDS011;8444;52.012;5.048;2022-12-24T00:44:44;25.80;;;5.57;;
16660;SDS011;8444;52.012;5.048;2022-12-24T00:47:09;29.73;;;5.33;;
16660;SDS011;8444;52.012;5.048;2022-12-24T00:49:35;15.03;;;4.70;;
16660;SDS011;8444;52.012;5.048;2022-12-24T00:52:00;29.50;;;5.47;;
16660;SDS011;8444;52.012;5.048;2022-12-24T00:54:27;24.30;;;4.83;;
16660;SDS011;8444;52.012;5.048;2022-12-24T00:56:52;25.73;;;6.03;;
16660;SDS011;8444;52.012;5.048;2022-12-24T00:59:17;36.67;;;6.03;;
16660;SDS011;8444;52.012;5.048;2022-12-24T01:01:42;29.63;;;4.97;;
16660;SDS011;8444;52.012;5.048;2022-12-24T01:04:08;34.83;;;5.40;;
16660;SDS011;8444;52.012;5.048;2022-12-24T01:06:51;27.13;;;5.30;;
16660;SDS011;8444;52.012;5.048;2022-12-24T01:09:17;20.90;;;4.47;;
16660;SDS011;8444;52.012;5.048;2022-12-24T01:11:42;20.67;;;4.33;;
16660;SDS011;8444;52.012;5.048;2022-12-24T01:14:07;25.00;;;4.33;;
16660;SDS011;8444;52.012;5.048;2022-12-24T01:16:32;36.10;;;6.90;;
16660;SDS011;8444;52.012;5.048;2022-12-24T01:18:57;28.57;;;5.97;;
16660;SDS011;8444;52.012;5.048;2022-12-24T01:21:23;27.73;;;4.83;;
16660;SDS011;8444;52.012;5.048;2022-12-24T01:23:48;29.33;;;4.97;;
16660;SDS011;8444;52.012;5.048;2022-12-24T01:26:13;46.27;;;6.07;;
16660;SDS011;8444;52.012;5.048;2022-12-24T01:28:39;29.43;;;6.13;;
16660;SDS011;8444;52.012;5.048;2022-12-24T01:31:11;39.00;;;6.63;;
16660;SDS011;8444;52.012;5.048;2022-12-24T01:33:36;24.43;;;7.17;;
16660;SDS011;8444;52.012;5.048;2022-12-24T01:36:02;30.37;;;5.73;;
16660;SDS011;8444;52.012;5.048;2022-12-24T01:38:27;25.67;;;5.03;;
16660;SDS011;8444;52.012;5.048;2022-12-24T01:40:52;22.00;;;4.60;;
16660;SDS011;8444;52.012;5.048;2022-12-24T01:43:36;34.30;;;6.13;;
16660;SDS011;8444;52.012;5.048;2022-12-24T01:46:06;31.43;;;6.13;;
16660;SDS011;8444;52.012;5.048;2022-12-24T01:51:29;33.10;;;6.23;;
16660;SDS011;8444;52.012;5.048;2022-12-24T01:53:58;30.70;;;6.03;;
16660;SDS011;8444;52.012;5.048;2022-12-24T01:56:25;26.63;;;5.57;;
16660;SDS011;8444;52.012;5.048;2022-12-24T01:58:52;34.90;;;5.10;;
16660;SDS011;8444;52.012;5.048;2022-12-24T02:01:18;26.27;;;4.83;;
16660;SDS011;8444;52.012;5.048;2022-12-24T02:03:43;30.67;;;6.33;;
16660;SDS011;8444;52.012;5.048;2022-12-24T02:06:08;22.37;;;4.70;;
16660;SDS011;8444;52.012;5.048;2022-12-24T02:08:36;24.70;;;4.97;;
16660;SDS011;8444;52.012;5.048;2022-12-24T02:11:11;20.03;;;3.97;;
16660;SDS011;8444;52.012;5.048;2022-12-24T02:13:37;37.50;;;6.30;;
16660;SDS011;8444;52.012;5.048;2022-12-24T02:16:08;25.67;;;6.13;;
16660;SDS011;8444;52.012;5.048;2022-12-24T02:21:25;24.10;;;4.17;;
16660;SDS011;8444;52.012;5.048;2022-12-24T02:27:02;21.83;;;3.87;;
16660;SDS011;8444;52.012;5.048;2022-12-24T02:29:54;19.40;;;4.80;;
16660;SDS011;8444;52.012;5.048;2022-12-24T02:32:20;18.03;;;3.43;;
16660;SDS011;8444;52.012;5.048;2022-12-24T02:34:48;24.37;;;4.13;;
16660;SDS011;8444;52.012;5.048;2022-12-24T02:37:21;26.07;;;4.50;;
16660;SDS011;8444;52.012;5.048;2022-12-24T02:39:58;26.77;;;4.57;;
16660;SDS011;8444;52.012;5.048;2022-12-24T02:42:26;23.67;;;5.50;;
16660;SDS011;8444;52.012;5.048;2022-12-24T02:44:54;11.57;;;3.17;;
16660;SDS011;8444;52.012;5.048;2022-12-24T02:47:21;22.50;;;3.70;;
16660;SDS011;8444;52.012;5.048;2022-12-24T02:49:47;30.33;;;4.03;;
16660;SDS011;8444;52.012;5.048;2022-12-24T02:52:31;33.07;;;4.87;;
16660;SDS011;8444;52.012;5.048;2022-12-24T02:54:57;26.23;;;4.60;;
16660;SDS011;8444;52.012;5.048;2022-12-24T02:58:09;30.47;;;5.83;;
16660;SDS011;8444;52.012;5.048;2022-12-24T03:00:14;26.80;;;4.67;;
16660;SDS011;8444;52.012;5.048;2022-12-24T03:02:51;22.83;;;5.70;;
16660;SDS011;8444;52.012;5.048;2022-12-24T03:10:41;29.77;;;4.83;;
16660;SDS011;8444;52.012;5.048;2022-12-24T03:13:11;23.80;;;5.07;;
16660;SDS011;8444;52.012;5.048;2022-12-24T03:15:37;33.50;;;5.13;;
16660;SDS011;8444;52.012;5.048;2022-12-24T03:18:03;30.10;;;5.13;;
16660;SDS011;8444;52.012;5.048;2022-12-24T03:20:35;32.00;;;6.70;;
16660;SDS011;8444;52.012;5.048;2022-12-24T03:23:01;32.00;;;6.00;;
16660;SDS011;8444;52.012;5.048;2022-12-24T03:25:26;25.73;;;4.97;;
16660;SDS011;8444;52.012;5.048;2022-12-24T03:27:52;39.77;;;8.27;;
16660;SDS011;8444;52.012;5.048;2022-12-24T03:30:17;23.70;;;6.00;;
16660;SDS011;8444;52.012;5.048;2022-12-24T03:32:43;30.47;;;5.97;;
16660;SDS011;8444;52.012;5.048;2022-12-24T03:35:08;43.60;;;7.13;;
16660;SDS011;8444;52.012;5.048;2022-12-24T03:37:33;30.13;;;5.53;;
16660;SDS011;8444;52.012;5.048;2022-12-24T03:39:59;28.77;;;4.87;;
16660;SDS011;8444;52.012;5.048;2022-12-24T03:42:24;40.20;;;8.00;;
16660;SDS011;8444;52.012;5.048;2022-12-24T03:44:49;28.50;;;6.07;;
16660;SDS011;8444;52.012;5.048;2022-12-24T03:47:14;26.80;;;5.27;;
16660;SDS011;8444;52.012;5.048;2022-12-24T03:49:40;47.00;;;6.83;;
16660;SDS011;8444;52.012;5.048;2022-12-24T03:52:05;34.07;;;5.93;;
16660;SDS011;8444;52.012;5.048;2022-12-24T03:54:30;28.77;;;5.87;;
16660;SDS011;8444;52.012;5.048;2022-12-24T03:56:55;30.33;;;5.40;;
16660;SDS011;8444;52.012;5.048;2022-12-24T03:59:21;27.40;;;5.37;;
16660;SDS011;8444;52.012;5.048;2022-12-24T04:01:46;27.87;;;5.27;;
16660;SDS011;8444;52.012;5.048;2022-12-24T04:04:11;34.67;;;5.23;;
16660;SDS011;8444;52.012;5.048;2022-12-24T04:06:36;36.87;;;6.10;;
16660;SDS011;8444;52.012;5.048;2022-12-24T04:09:01;26.70;;;6.07;;
16660;SDS011;8444;52.012;5.048;2022-12-24T04:11:29;26.83;;;4.63;;
16660;SDS011;8444;52.012;5.048;2022-12-24T04:13:54;26.97;;;6.13;;
16660;SDS011;8444;52.012;5.048;2022-12-24T04:16:20;35.37;;;5.63;;
16660;SDS011;8444;52.012;5.048;2022-12-24T04:18:45;25.07;;;4.90;;
16660;SDS011;8444;52.012;5.048;2022-12-24T04:21:10;28.07;;;6.63;;
16660;SDS011;8444;52.012;5.048;2022-12-24T04:23:36;32.77;;;7.97;;
16660;SDS011;8444;52.012;5.048;2022-12-24T04:26:02;21.90;;;4.90;;
16660;SDS011;8444;52.012;5.048;2022-12-24T04:28:28;28.60;;;4.60;;
16660;SDS011;8444;52.012;5.048;2022-12-24T04:30:57;20.53;;;4.67;;
16660;SDS011;8444;52.012;5.048;2022-12-24T04:33:22;23.67;;;5.00;;
16660;SDS011;8444;52.012;5.048;2022-12-24T04:35:48;21.77;;;3.97;;
16660;SDS011;8444;52.012;5.048;2022-12-24T04:38:13;21.27;;;3.40;;
16660;SDS011;8444;52.012;5.048;2022-12-24T04:40:38;15.77;;;4.63;;
16660;SDS011;8444;52.012;5.048;2022-12-24T04:43:03;30.07;;;6.70;;
16660;SDS011;8444;52.012;5.048;2022-12-24T04:45:28;22.93;;;4.47;;
16660;SDS011;8444;52.012;5.048;2022-12-24T04:47:55;27.33;;;6.00;;
16660;SDS011;8444;52.012;5.048;2022-12-24T04:50:20;21.47;;;3.97;;
16660;SDS011;8444;52.012;5.048;2022-12-24T04:52:45;27.57;;;5.30;;
16660;SDS011;8444;52.012;5.048;2022-12-24T04:55:10;27.80;;;4.87;;
16660;SDS011;8444;52.012;5.048;2022-12-24T04:57:36;29.43;;;5.50;;
16660;SDS011;8444;52.012;5.048;2022-12-24T05:00:02;19.53;;;5.57;;
16660;SDS011;8444;52.012;5.048;2022-12-24T05:02:28;28.63;;;4.30;;
16660;SDS011;8444;52.012;5.048;2022-12-24T05:04:53;19.50;;;6.10;;
16660;SDS011;8444;52.012;5.048;2022-12-24T05:07:18;29.80;;;6.03;;
16660;SDS011;8444;52.012;5.048;2022-12-24T05:09:43;32.80;;;6.77;;
16660;SDS011;8444;52.012;5.048;2022-12-24T05:12:08;18.90;;;5.10;;
16660;SDS011;8444;52.012;5.048;2022-12-24T05:14:34;25.00;;;5.10;;
16660;SDS011;8444;52.012;5.048;2022-12-24T05:16:59;31.33;;;5.30;;
16660;SDS011;8444;52.012;5.048;2022-12-24T05:19:24;35.53;;;6.10;;
16660;SDS011;8444;52.012;5.048;2022-12-24T05:21:49;21.10;;;4.93;;
16660;SDS011;8444;52.012;5.048;2022-12-24T05:24:34;32.17;;;4.97;;
16660;SDS011;8444;52.012;5.048;2022-12-24T05:27:18;35.37;;;6.33;;
16660;SDS011;8444;52.012;5.048;2022-12-24T05:29:44;39.00;;;7.40;;
16660;SDS011;8444;52.012;5.048;2022-12-24T05:32:09;28.07;;;6.13;;
16660;SDS011;8444;52.012;5.048;2022-12-24T05:34:34;38.30;;;7.00;;
16660;SDS011;8444;52.012;5.048;2022-12-24T05:36:59;30.43;;;7.07;;
16660;SDS011;8444;52.012;5.048;2022-12-24T05:39:24;32.97;;;6.00;;
16660;SDS011;8444;52.012;5.048;2022-12-24T05:41:49;34.07;;;7.57;;
16660;SDS011;8444;52.012;5.048;2022-12-24T05:44:15;31.93;;;6.30;;
16660;SDS011;8444;52.012;5.048;2022-12-24T05:46:40;26.17;;;6.17;;
16660;SDS011;8444;52.012;5.048;2022-12-24T05:49:05;36.17;;;7.00;;
16660;SDS011;8444;52.012;5.048;2022-12-24T05:51:30;36.87;;;5.87;;
16660;SDS011;8444;52.012;5.048;2022-12-24T05:53:56;28.47;;;6.67;;
16660;SDS011;8444;52.012;5.048;2022-12-24T05:56:21;31.03;;;6.57;;
16660;SDS011;8444;52.012;5.048;2022-12-24T05:58:47;31.53;;;6.23;;
16660;SDS011;8444;52.012;5.048;2022-12-24T06:01:12;48.63;;;8.30;;
16660;SDS011;8444;52.012;5.048;2022-12-24T06:03:38;41.00;;;7.20;;
16660;SDS011;8444;52.012;5.048;2022-12-24T06:06:04;45.27;;;6.53;;
16660;SDS011;8444;52.012;5.048;2022-12-24T06:08:31;29.67;;;7.10;;
16660;SDS011;8444;52.012;5.048;2022-12-24T06:10:57;34.33;;;6.43;;
16660;SDS011;8444;52.012;5.048;2022-12-24T06:13:23;34.63;;;6.23;;
16660;SDS011;8444;52.012;5.048;2022-12-24T06:15:49;36.83;;;6.67;;
16660;SDS011;8444;52.012;5.048;2022-12-24T06:18:14;36.57;;;6.13;;
16660;SDS011;8444;52.012;5.048;2022-12-24T06:20:39;37.60;;;8.17;;
16660;SDS011;8444;52.012;5.048;2022-12-24T06:23:04;30.03;;;6.30;;
16660;SDS011;8444;52.012;5.048;2022-12-24T06:25:30;40.17;;;8.43;;
16660;SDS011;8444;52.012;5.048;2022-12-24T06:27:55;45.67;;;7.83;;
16660;SDS011;8444;52.012;5.048;2022-12-24T06:30:20;37.67;;;7.03;;
16660;SDS011;8444;52.012;5.048;2022-12-24T06:32:45;36.50;;;8.33;;
16660;SDS011;8444;52.012;5.048;2022-12-24T06:35:10;39.23;;;6.07;;
16660;SDS011;8444;52.012;5.048;2022-12-24T06:37:36;33.87;;;6.90;;
16660;SDS011;8444;52.012;5.048;2022-12-24T06:40:01;39.40;;;9.43;;
16660;SDS011;8444;52.012;5.048;2022-12-24T06:42:26;33.97;;;6.67;;
16660;SDS011;8444;52.012;5.048;2022-12-24T06:44:51;47.43;;;6.90;;
16660;SDS011;8444;52.012;5.048;2022-12-24T06:47:17;28.77;;;6.03;;
16660;SDS011;8444;52.012;5.048;2022-12-24T06:49:42;41.13;;;8.10;;
16660;SDS011;8444;52.012;5.048;2022-12-24T06:52:07;33.20;;;8.30;;
16660;SDS011;8444;52.012;5.048;2022-12-24T06:54:32;39.63;;;8.37;;
16660;SDS011;8444;52.012;5.048;2022-12-24T06:56:57;33.53;;;6.20;;
16660;SDS011;8444;52.012;5.048;2022-12-24T06:59:23;36.17;;;6.53;;
16660;SDS011;8444;52.012;5.048;2022-12-24T07:01:48;38.77;;;7.13;;
16660;SDS011;8444;52.012;5.048;2022-12-24T07:04:13;38.03;;;7.60;;
16660;SDS011;8444;52.012;5.048;2022-12-24T07:06:38;37.27;;;8.97;;
16660;SDS011;8444;52.012;5.048;2022-12-24T07:09:03;38.67;;;7.00;;
16660;SDS011;8444;52.012;5.048;2022-12-24T07:11:28;37.73;;;6.43;;
16660;SDS011;8444;52.012;5.048;2022-12-24T07:13:54;31.83;;;6.80;;
16660;SDS011;8444;52.012;5.048;2022-12-24T07:16:19;35.00;;;6.17;;
16660;SDS011;8444;52.012;5.048;2022-12-24T07:18:44;45.10;;;7.03;;
16660;SDS011;8444;52.012;5.048;2022-12-24T07:21:09;27.50;;;7.03;;
16660;SDS011;8444;52.012;5.048;2022-12-24T07:23:35;54.20;;;9.23;;
16660;SDS011;8444;52.012;5.048;2022-12-24T07:26:00;33.30;;;5.60;;
16660;SDS011;8444;52.012;5.048;2022-12-24T07:28:26;33.47;;;5.37;;
16660;SDS011;8444;52.012;5.048;2022-12-24T07:30:52;31.63;;;6.03;;
16660;SDS011;8444;52.012;5.048;2022-12-24T07:33:17;38.40;;;6.37;;
16660;SDS011;8444;52.012;5.048;2022-12-24T07:35:42;33.83;;;6.70;;
16660;SDS011;8444;52.012;5.048;2022-12-24T07:38:08;28.83;;;5.70;;
16660;SDS011;8444;52.012;5.048;2022-12-24T07:40:33;36.53;;;6.60;;
16660;SDS011;8444;52.012;5.048;2022-12-24T07:42:59;35.93;;;5.97;;
16660;SDS011;8444;52.012;5.048;2022-12-24T07:45:24;41.63;;;7.17;;
16660;SDS011;8444;52.012;5.048;2022-12-24T07:47:49;31.97;;;7.17;;
16660;SDS011;8444;52.012;5.048;2022-12-24T07:50:14;30.57;;;5.37;;
16660;SDS011;8444;52.012;5.048;2022-12-24T07:52:40;26.20;;;5.80;;
16660;SDS011;8444;52.012;5.048;2022-12-24T07:55:05;39.27;;;6.10;;
16660;SDS011;8444;52.012;5.048;2022-12-24T07:57:30;32.87;;;6.07;;
16660;SDS011;8444;52.012;5.048;2022-12-24T07:59:55;31.87;;;7.10;;
16660;SDS011;8444;52.012;5.048;2022-12-24T08:02:21;32.37;;;6.90;;
16660;SDS011;8444;52.012;5.048;2022-12-24T08:04:46;30.77;;;7.83;;
16660;SDS011;8444;52.012;5.048;2022-12-24T08:07:11;43.83;;;8.33;;
16660;SDS011;8444;52.012;5.048;2022-12-24T08:09:36;36.07;;;7.03;;
16660;SDS011;8444;52.012;5.048;2022-12-24T08:12:02;37.43;;;8.80;;
16660;SDS011;8444;52.012;5.048;2022-12-24T08:14:28;40.23;;;8.33;;
16660;SDS011;8444;52.012;5.048;2022-12-24T08:16:53;44.30;;;11.83;;
16660;SDS011;8444;52.012;5.048;2022-12-24T08:19:18;34.80;;;8.30;;
16660;SDS011;8444;52.012;5.048;2022-12-24T08:21:44;48.80;;;9.47;;
16660;SDS011;8444;52.012;5.048;2022-12-24T08:24:09;39.70;;;8.63;;
16660;SDS011;8444;52.012;5.048;2022-12-24T08:26:34;37.57;;;7.53;;
16660;SDS011;8444;52.012;5.048;2022-12-24T08:29:00;49.93;;;8.40;;
16660;SDS011;8444;52.012;5.048;2022-12-24T08:31:25;40.73;;;8.37;;
16660;SDS011;8444;52.012;5.048;2022-12-24T08:33:50;44.63;;;8.80;;
16660;SDS011;8444;52.012;5.048;2022-12-24T08:36:15;32.83;;;6.50;;
16660;SDS011;8444;52.012;5.048;2022-12-24T08:38:41;40.43;;;7.03;;
16660;SDS011;8444;52.012;5.048;2022-12-24T08:41:06;32.30;;;8.20;;
16660;SDS011;8444;52.012;5.048;2022-12-24T08:43:31;34.27;;;9.30;;
16660;SDS011;8444;52.012;5.048;2022-12-24T08:46:00;40.10;;;7.60;;
16660;SDS011;8444;52.012;5.048;2022-12-24T08:48:25;35.37;;;7.40;;
16660;SDS011;8444;52.012;5.048;2022-12-24T08:50:50;25.03;;;6.93;;
16660;SDS011;8444;52.012;5.048;2022-12-24T08:53:15;35.23;;;7.63;;
16660;SDS011;8444;52.012;5.048;2022-12-24T08:55:41;27.73;;;5.80;;
16660;SDS011;8444;52.012;5.048;2022-12-24T08:58:06;20.37;;;6.47;;
16660;SDS011;8444;52.012;5.048;2022-12-24T09:00:31;46.90;;;6.97;;
16660;SDS011;8444;52.012;5.048;2022-12-24T09:02:57;27.10;;;5.70;;
16660;SDS011;8444;52.012;5.048;2022-12-24T09:05:22;27.43;;;6.23;;
16660;SDS011;8444;52.012;5.048;2022-12-24T09:07:47;29.60;;;7.23;;
16660;SDS011;8444;52.012;5.048;2022-12-24T09:10:12;25.33;;;7.17;;
16660;SDS011;8444;52.012;5.048;2022-12-24T09:12:37;30.50;;;6.87;;
16660;SDS011;8444;52.012;5.048;2022-12-24T09:15:03;24.33;;;5.40;;
16660;SDS011;8444;52.012;5.048;2022-12-24T09:17:29;31.63;;;5.47;;
16660;SDS011;8444;52.012;5.048;2022-12-24T09:19:55;35.97;;;6.23;;
16660;SDS011;8444;52.012;5.048;2022-12-24T09:22:20;29.43;;;5.53;;
16660;SDS011;8444;52.012;5.048;2022-12-24T09:24:45;33.07;;;6.30;;
16660;SDS011;8444;52.012;5.048;2022-12-24T09:27:11;29.37;;;6.67;;
16660;SDS011;8444;52.012;5.048;2022-12-24T09:29:36;25.70;;;4.73;;
16660;SDS011;8444;52.012;5.048;2022-12-24T09:32:04;27.77;;;5.97;;
16660;SDS011;8444;52.012;5.048;2022-12-24T09:34:29;21.93;;;5.40;;
16660;SDS011;8444;52.012;5.048;2022-12-24T09:36:54;34.47;;;6.20;;
16660;SDS011;8444;52.012;5.048;2022-12-24T09:39:20;24.33;;;6.97;;
16660;SDS011;8444;52.012;5.048;2022-12-24T09:42:05;28.73;;;5.47;;
16660;SDS011;8444;52.012;5.048;2022-12-24T09:49:58;23.33;;;5.30;;
16660;SDS011;8444;52.012;5.048;2022-12-24T09:52:27;26.87;;;6.27;;
16660;SDS011;8444;52.012;5.048;2022-12-24T09:55:27;21.03;;;5.87;;
16660;SDS011;8444;52.012;5.048;2022-12-24T09:57:45;27.83;;;7.60;;
16660;SDS011;8444;52.012;5.048;2022-12-24T10:00:21;29.60;;;5.40;;
16660;SDS011;8444;52.012;5.048;2022-12-24T10:02:47;26.93;;;5.60;;
16660;SDS011;8444;52.012;5.048;2022-12-24T10:05:26;27.83;;;5.37;;
16660;SDS011;8444;52.012;5.048;2022-12-24T10:08:02;25.10;;;5.03;;
16660;SDS011;8444;52.012;5.048;2022-12-24T10:10:37;23.40;;;5.10;;
16660;SDS011;8444;52.012;5.048;2022-12-24T10:13:11;30.83;;;6.47;;
16660;SDS011;8444;52.012;5.048;2022-12-24T10:15:39;23.17;;;4.80;;
16660;SDS011;8444;52.012;5.048;2022-12-24T10:20:38;28.07;;;6.37;;
16660;SDS011;8444;52.012;5.048;2022-12-24T10:25:35;20.83;;;5.30;;
16660;SDS011;8444;52.012;5.048;2022-12-24T10:28:01;35.03;;;6.20;;
16660;SDS011;8444;52.012;5.048;2022-12-24T10:30:29;30.83;;;7.50;;
16660;SDS011;8444;52.012;5.048;2022-12-24T10:32:55;31.13;;;7.70;;
16660;SDS011;8444;52.012;5.048;2022-12-24T10:35:33;28.98;;;5.97;;
16660;SDS011;8444;52.012;5.048;2022-12-24T10:38:00;25.17;;;5.10;;
16660;SDS011;8444;52.012;5.048;2022-12-24T10:40:42;30.13;;;6.75;;
16660;SDS011;8444;52.012;5.048;2022-12-24T10:43:15;24.33;;;5.00;;
16660;SDS011;8444;52.012;5.048;2022-12-24T10:45:41;25.30;;;7.17;;
16660;SDS011;8444;52.012;5.048;2022-12-24T10:48:08;26.70;;;6.88;;
16660;SDS011;8444;52.012;5.048;2022-12-24T10:50:40;32.67;;;6.45;;
16660;SDS011;8444;52.012;5.048;2022-12-24T10:55:51;24.98;;;5.40;;
16660;SDS011;8444;52.012;5.048;2022-12-24T10:58:24;27.40;;;5.97;;
16660;SDS011;8444;52.012;5.048;2022-12-24T11:00:50;26.90;;;6.10;;
16660;SDS011;8444;52.012;5.048;2022-12-24T11:03:20;27.67;;;7.80;;
16660;SDS011;8444;52.012;5.048;2022-12-24T11:05:48;29.88;;;5.93;;
16660;SDS011;8444;52.012;5.048;2022-12-24T11:08:22;25.47;;;6.87;;
16660;SDS011;8444;52.012;5.048;2022-12-24T11:11:08;34.83;;;5.88;;
16660;SDS011;8444;52.012;5.048;2022-12-24T11:13:38;17.33;;;4.22;;
16660;SDS011;8444;52.012;5.048;2022-12-24T11:18:31;22.93;;;5.77;;
16660;SDS011;8444;52.012;5.048;2022-12-24T11:20:57;21.05;;;4.82;;
16660;SDS011;8444;52.012;5.048;2022-12-24T11:23:25;21.25;;;4.97;;
16660;SDS011;8444;52.012;5.048;2022-12-24T11:25:50;22.83;;;5.05;;
16660;SDS011;8444;52.012;5.048;2022-12-24T11:28:20;18.43;;;4.03;;
16660;SDS011;8444;52.012;5.048;2022-12-24T11:33:20;23.77;;;5.77;;
16660;SDS011;8444;52.012;5.048;2022-12-24T11:35:47;32.47;;;5.17;;
16660;SDS011;8444;52.012;5.048;2022-12-24T11:38:16;30.70;;;6.43;;
16660;SDS011;8444;52.012;5.048;2022-12-24T11:40:44;18.20;;;4.43;;
16660;SDS011;8444;52.012;5.048;2022-12-24T11:43:17;21.20;;;4.60;;
16660;SDS011;8444;52.012;5.048;2022-12-24T11:45:56;28.33;;;5.17;;
16660;SDS011;8444;52.012;5.048;2022-12-24T11:48:31;22.87;;;4.30;;
16660;SDS011;8444;52.012;5.048;2022-12-24T11:51:08;22.67;;;5.17;;
16660;SDS011;8444;52.012;5.048;2022-12-24T11:58:52;24.80;;;5.23;;
16660;SDS011;8444;52.012;5.048;2022-12-24T12:01:25;20.37;;;4.20;;
16660;SDS011;8444;52.012;5.048;2022-12-24T12:06:42;17.63;;;3.97;;
16660;SDS011;8444;52.012;5.048;2022-12-24T12:09:23;19.17;;;4.07;;
16660;SDS011;8444;52.012;5.048;2022-12-24T12:11:51;19.65;;;4.15;;
16660;SDS011;8444;52.012;5.048;2022-12-24T12:14:20;22.80;;;5.13;;
16660;SDS011;8444;52.012;5.048;2022-12-24T12:16:48;19.57;;;5.43;;
16660;SDS011;8444;52.012;5.048;2022-12-24T12:19:34;19.80;;;4.15;;
16660;SDS011;8444;52.012;5.048;2022-12-24T12:22:02;17.00;;;3.55;;
16660;SDS011;8444;52.012;5.048;2022-12-24T12:24:29;22.38;;;4.13;;
16660;SDS011;8444;52.012;5.048;2022-12-24T12:30:05;21.67;;;4.95;;
16660;SDS011;8444;52.012;5.048;2022-12-24T12:32:35;17.67;;;5.13;;
16660;SDS011;8444;52.012;5.048;2022-12-24T12:35:14;16.92;;;5.03;;
16660;SDS011;8444;52.012;5.048;2022-12-24T12:37:42;24.27;;;4.47;;
16660;SDS011;8444;52.012;5.048;2022-12-24T12:40:12;15.27;;;3.63;;
16660;SDS011;8444;52.012;5.048;2022-12-24T12:42:38;20.03;;;5.87;;
16660;SDS011;8444;52.012;5.048;2022-12-24T12:50:24;15.95;;;3.47;;
16660;SDS011;8444;52.012;5.048;2022-12-24T12:58:07;19.45;;;3.70;;
16660;SDS011;8444;52.012;5.048;2022-12-24T13:00:35;20.85;;;4.10;;
16660;SDS011;8444;52.012;5.048;2022-12-24T13:08:07;12.35;;;3.50;;
16660;SDS011;8444;52.012;5.048;2022-12-24T13:20:41;13.27;;;3.25;;
16660;SDS011;8444;52.012;5.048;2022-12-24T13:23:14;17.08;;;4.38;;
16660;SDS011;8444;52.012;5.048;2022-12-24T13:25:43;22.63;;;4.45;;
16660;SDS011;8444;52.012;5.048;2022-12-24T13:30:47;21.95;;;3.58;;
16660;SDS011;8444;52.012;5.048;2022-12-24T13:33:44;10.88;;;3.55;;
16660;SDS011;8444;52.012;5.048;2022-12-24T13:40:51;23.02;;;5.78;;
16660;SDS011;8444;52.012;5.048;2022-12-24T13:43:17;16.02;;;4.07;;
16660;SDS011;8444;52.012;5.048;2022-12-24T13:45:43;17.02;;;3.55;;
16660;SDS011;8444;52.012;5.048;2022-12-24T13:52:59;15.45;;;4.13;;
16660;SDS011;8444;52.012;5.048;2022-12-24T13:55:24;20.23;;;3.58;;
16660;SDS011;8444;52.012;5.048;2022-12-24T14:07:54;30.50;;;5.47;;
16660;SDS011;8444;52.012;5.048;2022-12-24T14:10:22;24.48;;;4.32;;
16660;SDS011;8444;52.012;5.048;2022-12-24T14:12:49;16.38;;;3.78;;
16660;SDS011;8444;52.012;5.048;2022-12-24T14:17:58;17.98;;;4.43;;
16660;SDS011;8444;52.012;5.048;2022-12-24T14:20:24;21.92;;;4.68;;
16660;SDS011;8444;52.012;5.048;2022-12-24T14:22:50;19.85;;;4.38;;
16660;SDS011;8444;52.012;5.048;2022-12-24T14:25:16;16.55;;;4.57;;
16660;SDS011;8444;52.012;5.048;2022-12-24T14:27:44;22.45;;;5.28;;
16660;SDS011;8444;52.012;5.048;2022-12-24T14:30:26;19.55;;;3.72;;
16660;SDS011;8444;52.012;5.048;2022-12-24T14:32:52;20.13;;;5.20;;
16660;SDS011;8444;52.012;5.048;2022-12-24T14:38:05;16.88;;;3.97;;
16660;SDS011;8444;52.012;5.048;2022-12-24T14:40:29;18.88;;;4.22;;
16660;SDS011;8444;52.012;5.048;2022-12-24T14:43:13;20.95;;;3.75;;
16660;SDS011;8444;52.012;5.048;2022-12-24T14:45:47;25.35;;;4.55;;
16660;SDS011;8444;52.012;5.048;2022-12-24T14:48:16;19.65;;;4.43;;
16660;SDS011;8444;52.012;5.048;2022-12-24T14:56:23;16.23;;;3.85;;
16660;SDS011;8444;52.012;5.048;2022-12-24T14:58:49;18.33;;;4.28;;
16660;SDS011;8444;52.012;5.048;2022-12-24T15:01:35;21.52;;;4.28;;
16660;SDS011;8444;52.012;5.048;2022-12-24T15:04:01;16.92;;;4.05;;
16660;SDS011;8444;52.012;5.048;2022-12-24T15:06:26;16.10;;;4.15;;
16660;SDS011;8444;52.012;5.048;2022-12-24T15:08:52;27.48;;;4.53;;
16660;SDS011;8444;52.012;5.048;2022-12-24T15:11:18;21.08;;;4.38;;
16660;SDS011;8444;52.012;5.048;2022-12-24T15:13:45;16.25;;;3.38;;
16660;SDS011;8444;52.012;5.048;2022-12-24T15:16:13;17.90;;;5.55;;
16660;SDS011;8444;52.012;5.048;2022-12-24T15:18:44;23.60;;;5.07;;
16660;SDS011;8444;52.012;5.048;2022-12-24T15:21:14;19.10;;;4.22;;
16660;SDS011;8444;52.012;5.048;2022-12-24T15:23:44;21.33;;;4.03;;
16660;SDS011;8444;52.012;5.048;2022-12-24T15:26:24;27.37;;;4.87;;
16660;SDS011;8444;52.012;5.048;2022-12-24T15:28:49;17.00;;;4.37;;
16660;SDS011;8444;52.012;5.048;2022-12-24T15:31:16;29.90;;;5.23;;
16660;SDS011;8444;52.012;5.048;2022-12-24T15:33:45;18.93;;;5.20;;
16660;SDS011;8444;52.012;5.048;2022-12-24T15:36:10;21.43;;;5.40;;
16660;SDS011;8444;52.012;5.048;2022-12-24T15:38:37;27.73;;;5.13;;
16660;SDS011;8444;52.012;5.048;2022-12-24T15:41:45;17.40;;;4.73;;
16660;SDS011;8444;52.012;5.048;2022-12-24T15:43:52;19.50;;;6.53;;
16660;SDS011;8444;52.012;5.048;2022-12-24T15:46:22;25.60;;;4.83;;
16660;SDS011;8444;52.012;5.048;2022-12-24T15:48:48;25.83;;;5.17;;
16660;SDS011;8444;52.012;5.048;2022-12-24T15:51:19;24.57;;;5.07;;
16660;SDS011;8444;52.012;5.048;2022-12-24T15:53:45;26.63;;;5.47;;
16660;SDS011;8444;52.012;5.048;2022-12-24T15:56:13;24.63;;;4.77;;
16660;SDS011;8444;52.012;5.048;2022-12-24T15:58:51;18.80;;;4.83;;
16660;SDS011;8444;52.012;5.048;2022-12-24T16:06:13;20.50;;;4.80;;
16660;SDS011;8444;52.012;5.048;2022-12-24T16:08:38;14.33;;;4.07;;
16660;SDS011;8444;52.012;5.048;2022-12-24T16:13:29;19.43;;;4.50;;
16660;SDS011;8444;52.012;5.048;2022-12-24T16:16:05;21.47;;;5.10;;
16660;SDS011;8444;52.012;5.048;2022-12-24T16:18:35;16.63;;;4.30;;
16660;SDS011;8444;52.012;5.048;2022-12-24T16:21:01;24.50;;;10.00;;
16660;SDS011;8444;52.012;5.048;2022-12-24T16:23:32;34.37;;;17.27;;
16660;SDS011;8444;52.012;5.048;2022-12-24T16:25:58;51.70;;;27.60;;
16660;SDS011;8444;52.012;5.048;2022-12-24T16:28:24;42.60;;;28.00;;
16660;SDS011;8444;52.012;5.048;2022-12-24T16:30:50;50.17;;;31.37;;
16660;SDS011;8444;52.012;5.048;2022-12-24T16:33:16;106.17;;;76.23;;
16660;SDS011;8444;52.012;5.048;2022-12-24T16:35:42;85.73;;;58.10;;
16660;SDS011;8444;52.012;5.048;2022-12-24T16:38:07;68.63;;;39.87;;
16660;SDS011;8444;52.012;5.048;2022-12-24T16:40:32;75.83;;;45.83;;